createdAt,value
2023-04-08T00:01:48.441Z,10.25
2023-04-08T00:04:15.546Z,12.20
2023-04-08T00:06:42.369Z,12.25
2023-04-08T00:09:09.027Z,12.38
2023-04-08T00:11:35.984Z,9.95
2023-04-08T00:14:04.343Z,10.98
2023-04-08T00:16:31.298Z,15.15
2023-04-08T00:18:57.973Z,11.15
2023-04-08T00:21:24.682Z,13.20
2023-04-08T00:23:51.670Z,10.35
2023-04-08T00:26:18.349Z,12.35
2023-04-08T00:28:45.089Z,12.77
2023-04-08T00:31:11.847Z,13.90
2023-04-08T00:33:38.561Z,9.82
2023-04-08T00:36:05.458Z,9.15
2023-04-08T00:38:32.161Z,11.20
2023-04-08T00:40:58.879Z,10.65
2023-04-08T00:43:25.568Z,14.25
2023-04-08T00:45:52.418Z,10.00
2023-04-08T00:48:19.188Z,12.05
2023-04-08T00:50:47.138Z,8.45
2023-04-08T00:53:18.023Z,11.75
2023-04-08T00:55:45.317Z,9.52
2023-04-08T00:58:13.776Z,9.43
2023-04-08T01:00:46.457Z,12.60
2023-04-08T01:05:59.907Z,9.70
2023-04-08T01:08:29.770Z,9.77
2023-04-08T01:11:01.018Z,10.80
2023-04-08T01:13:34.408Z,11.32
2023-04-08T01:16:01.461Z,11.07
2023-04-08T01:18:30.907Z,9.75
2023-04-08T01:20:59.112Z,13.18
2023-04-08T01:23:59.326Z,11.68
2023-04-08T01:26:26.894Z,11.30
2023-04-08T01:28:59.334Z,10.77
2023-04-08T01:31:26.956Z,12.25
2023-04-08T01:33:55.342Z,11.95
2023-04-08T01:36:24.271Z,12.93
2023-04-08T01:38:51.554Z,12.00
2023-04-08T01:41:19.536Z,13.35
2023-04-08T01:43:46.854Z,10.90
2023-04-08T01:46:14.097Z,11.13
2023-04-08T01:48:41.518Z,7.47
2023-04-08T01:51:09.606Z,7.97
2023-04-08T01:53:36.523Z,9.68
2023-04-08T01:56:07.660Z,9.88
2023-04-08T01:58:51.220Z,8.82
2023-04-08T02:01:20.998Z,8.07
2023-04-08T02:03:49.048Z,9.35
2023-04-08T02:06:15.804Z,9.57
2023-04-08T02:08:42.446Z,9.00
2023-04-08T02:11:09.829Z,10.02
2023-04-08T02:13:36.566Z,9.88
2023-04-08T02:16:22.366Z,8.20
2023-04-08T02:18:58.295Z,8.35
2023-04-08T02:21:33.344Z,9.75
2023-04-08T02:24:04.441Z,7.68
2023-04-08T02:26:36.207Z,9.05
2023-04-08T02:29:05.710Z,8.20
2023-04-08T02:31:33.656Z,10.63
2023-04-08T02:34:00.782Z,7.68
2023-04-08T02:36:27.857Z,6.55
2023-04-08T02:38:54.772Z,8.10
2023-04-08T02:41:21.618Z,9.48
2023-04-08T02:43:48.316Z,8.50
2023-04-08T02:46:15.606Z,11.80
2023-04-08T02:48:42.456Z,8.57
2023-04-08T02:51:09.125Z,7.13
2023-04-08T02:53:35.993Z,8.32
2023-04-08T02:56:02.709Z,7.45
2023-04-08T02:58:29.425Z,7.28
2023-04-08T03:00:56.244Z,8.13
2023-04-08T03:03:29.707Z,9.75
2023-04-08T03:05:57.124Z,8.35
2023-04-08T03:08:24.072Z,8.80
2023-04-08T03:10:50.938Z,8.57
2023-04-08T03:13:17.739Z,8.93
2023-04-08T03:15:44.461Z,9.45
2023-04-08T03:18:11.474Z,8.35
2023-04-08T03:20:38.113Z,8.50
2023-04-08T03:23:04.853Z,12.32
2023-04-08T03:25:31.656Z,7.18
2023-04-08T03:27:58.760Z,9.18
2023-04-08T03:30:26.163Z,10.20
2023-04-08T03:32:53.008Z,9.05
2023-04-08T03:35:19.932Z,7.28
2023-04-08T03:37:47.001Z,10.30
2023-04-08T03:40:14.033Z,10.00
2023-04-08T03:42:40.777Z,8.63
2023-04-08T03:45:07.891Z,8.88
2023-04-08T03:47:34.640Z,9.65
2023-04-08T03:50:01.382Z,8.82
2023-04-08T03:52:28.093Z,7.78
2023-04-08T03:54:54.763Z,7.75
2023-04-08T03:57:21.440Z,7.10
2023-04-08T03:59:48.083Z,9.02
2023-04-08T04:02:14.834Z,8.98
2023-04-08T04:04:41.813Z,9.68
2023-04-08T04:07:08.534Z,10.50
2023-04-08T04:09:35.481Z,8.65
2023-04-08T04:12:02.364Z,12.20
2023-04-08T04:14:29.007Z,10.85
2023-04-08T04:16:55.809Z,10.85
2023-04-08T04:19:22.518Z,10.48
2023-04-08T04:21:49.213Z,10.60
2023-04-08T04:24:15.951Z,9.70
2023-04-08T04:26:42.691Z,9.77
2023-04-08T04:29:09.361Z,11.27
2023-04-08T04:31:36.087Z,11.93
2023-04-08T04:34:02.899Z,12.07
2023-04-08T04:36:29.604Z,13.57
2023-04-08T04:38:56.773Z,11.20
2023-04-08T04:41:23.564Z,10.60
2023-04-08T04:43:50.447Z,13.07
2023-04-08T04:46:17.142Z,11.65
2023-04-08T04:48:43.962Z,10.50
2023-04-08T04:51:10.758Z,13.23
2023-04-08T04:53:37.356Z,9.98
2023-04-08T04:56:04.162Z,11.55
2023-04-08T04:58:30.979Z,10.93
2023-04-08T05:00:57.984Z,12.75
2023-04-08T05:03:24.827Z,12.75
2023-04-08T05:05:55.357Z,13.25
2023-04-08T05:08:22.358Z,15.20
2023-04-08T05:10:50.688Z,14.05
2023-04-08T05:13:18.317Z,15.60
2023-04-08T05:15:47.867Z,11.70
2023-04-08T05:18:14.845Z,13.43
2023-04-08T05:20:41.543Z,11.75
2023-04-08T05:23:08.664Z,14.05
2023-04-08T05:25:35.647Z,17.02
2023-04-08T05:28:02.607Z,12.88
2023-04-08T05:30:29.321Z,15.85
2023-04-08T05:32:59.381Z,12.15
2023-04-08T05:35:27.146Z,12.18
2023-04-08T05:37:53.836Z,13.15
2023-04-08T05:40:20.549Z,14.07
2023-04-08T05:42:47.244Z,14.18
2023-04-08T05:45:13.885Z,14.40
2023-04-08T05:47:40.588Z,14.13
2023-04-08T05:50:07.992Z,15.10
2023-04-08T05:52:34.612Z,15.45
2023-04-08T05:55:01.300Z,13.75
2023-04-08T05:57:27.993Z,13.38
2023-04-08T05:59:54.656Z,13.05
2023-04-08T06:02:21.645Z,14.80
2023-04-08T06:04:48.391Z,16.17
2023-04-08T06:07:15.451Z,14.88
2023-04-08T06:09:43.289Z,16.75
2023-04-08T06:12:11.546Z,16.30
2023-04-08T06:14:38.315Z,16.65
2023-04-08T06:17:05.168Z,16.38
2023-04-08T06:19:31.832Z,18.65
2023-04-08T06:21:59.179Z,17.20
2023-04-08T06:24:27.496Z,19.17
2023-04-08T06:26:54.367Z,22.15
2023-04-08T06:29:22.053Z,16.88
2023-04-08T06:31:49.390Z,19.48
2023-04-08T06:34:16.703Z,22.08
2023-04-08T06:36:43.982Z,18.92
2023-04-08T06:39:10.702Z,19.52
2023-04-08T06:41:37.375Z,21.00
2023-04-08T06:44:04.135Z,17.98
2023-04-08T06:46:30.782Z,21.70
2023-04-08T06:48:57.444Z,19.55
2023-04-08T06:51:24.123Z,19.90
2023-04-08T06:53:50.778Z,20.48
2023-04-08T06:56:17.421Z,20.75
2023-04-08T06:58:44.066Z,19.30
2023-04-08T07:01:11.131Z,22.55
2023-04-08T07:03:38.028Z,24.58
2023-04-08T07:06:05.202Z,26.77
2023-04-08T07:08:31.854Z,23.77
2023-04-08T07:10:58.576Z,22.98
2023-04-08T07:13:25.261Z,23.17
2023-04-08T07:15:52.111Z,25.38
2023-04-08T07:18:18.800Z,24.00
2023-04-08T07:20:45.471Z,27.23
2023-04-08T07:23:12.134Z,27.17
2023-04-08T07:25:38.812Z,25.23
2023-04-08T07:28:05.439Z,25.23
2023-04-08T07:30:32.194Z,26.60
2023-04-08T07:33:00.757Z,26.08
2023-04-08T07:35:28.121Z,20.58
2023-04-08T07:37:55.073Z,21.80
2023-04-08T07:40:21.851Z,25.25
2023-04-08T07:42:49.251Z,22.00
2023-04-08T07:45:16.064Z,22.70
2023-04-08T07:47:42.818Z,23.33
2023-04-08T07:50:09.808Z,22.80
2023-04-08T07:52:36.468Z,20.15
2023-04-08T07:55:03.243Z,22.42
2023-04-08T07:57:30.738Z,20.08
2023-04-08T07:59:57.461Z,18.48
2023-04-08T08:02:24.404Z,18.92
2023-04-08T08:04:51.450Z,19.10
2023-04-08T08:07:18.215Z,20.27
2023-04-08T08:09:44.934Z,21.88
2023-04-08T08:12:11.693Z,23.15
2023-04-08T08:14:38.852Z,18.95
2023-04-08T08:17:05.515Z,21.77
2023-04-08T08:19:32.186Z,20.20
2023-04-08T08:21:58.913Z,20.70
2023-04-08T08:24:26.033Z,20.63
2023-04-08T08:26:52.871Z,19.02
2023-04-08T08:29:19.533Z,20.38
2023-04-08T08:31:48.424Z,17.90
2023-04-08T08:34:15.481Z,19.05
2023-04-08T08:36:42.314Z,20.77
2023-04-08T08:39:09.040Z,16.60
2023-04-08T08:41:38.408Z,19.00
2023-04-08T08:44:09.913Z,16.95
2023-04-08T08:46:36.703Z,15.93
2023-04-08T08:49:03.449Z,18.52
2023-04-08T08:51:32.819Z,15.27
2023-04-08T08:54:02.795Z,16.45
2023-04-08T08:56:29.481Z,18.48
2023-04-08T08:58:56.174Z,17.65
2023-04-08T09:01:33.809Z,16.63
2023-04-08T09:04:21.125Z,16.92
2023-04-08T09:06:50.136Z,17.48
2023-04-08T09:09:18.016Z,15.05
2023-04-08T09:11:46.480Z,13.68
2023-04-08T09:14:19.945Z,16.80
2023-04-08T09:16:47.138Z,15.30
2023-04-08T09:19:14.278Z,15.80
2023-04-08T09:21:41.429Z,15.55
2023-04-08T09:24:09.574Z,17.13
2023-04-08T09:26:37.587Z,14.35
2023-04-08T09:29:18.267Z,14.45
2023-04-08T09:31:59.601Z,15.20
2023-04-08T09:34:28.072Z,12.68
2023-04-08T09:36:55.763Z,14.85
2023-04-08T09:39:22.822Z,15.63
2023-04-08T09:41:51.773Z,15.20
2023-04-08T09:44:23.528Z,14.70
2023-04-08T09:46:50.284Z,15.05
2023-04-08T09:49:29.845Z,20.13
2023-04-08T09:52:06.173Z,14.63
2023-04-08T09:54:56.230Z,17.05
2023-04-08T09:57:37.008Z,16.83
2023-04-08T10:00:28.867Z,16.45
2023-04-08T10:03:21.282Z,18.65
2023-04-08T10:05:49.641Z,18.77
2023-04-08T10:08:16.734Z,21.50
2023-04-08T10:10:46.109Z,19.17
2023-04-08T10:13:13.685Z,18.08
2023-04-08T10:15:44.207Z,17.10
2023-04-08T10:18:11.152Z,17.67
2023-04-08T10:20:37.970Z,20.27
2023-04-08T10:23:10.358Z,16.20
2023-04-08T10:25:41.634Z,14.98
2023-04-08T10:28:11.322Z,16.40
2023-04-08T10:30:47.571Z,18.92
2023-04-08T10:33:32.938Z,17.08
2023-04-08T10:36:06.794Z,18.52
2023-04-08T10:38:33.855Z,21.15
2023-04-08T10:41:00.649Z,19.48
2023-04-08T10:43:33.801Z,18.98
2023-04-08T10:46:01.536Z,21.48
2023-04-08T10:48:31.342Z,22.17
2023-04-08T10:50:59.593Z,19.42
2023-04-08T10:53:27.929Z,20.67
2023-04-08T10:56:03.342Z,18.08
2023-04-08T10:58:30.751Z,22.05
2023-04-08T11:01:04.376Z,20.08
2023-04-08T11:03:37.241Z,18.60
2023-04-08T11:06:15.725Z,23.80
2023-04-08T11:08:42.508Z,23.63
2023-04-08T11:11:10.745Z,25.75
2023-04-08T11:13:41.620Z,29.48
2023-04-08T11:16:18.317Z,34.35
2023-04-08T11:18:45.955Z,36.70
2023-04-08T11:21:12.849Z,31.98
2023-04-08T11:23:39.660Z,45.00
2023-04-08T11:26:06.941Z,24.23
2023-04-08T11:28:35.488Z,24.20
2023-04-08T11:31:05.787Z,22.95
2023-04-08T11:33:33.008Z,20.77
2023-04-08T11:36:04.179Z,23.67
2023-04-08T11:38:31.046Z,21.73
2023-04-08T11:40:59.414Z,24.42
2023-04-08T11:43:27.042Z,28.48
2023-04-08T11:45:53.835Z,25.73
2023-04-08T11:48:20.547Z,28.77
2023-04-08T11:50:47.432Z,26.98
2023-04-08T11:53:21.586Z,28.42
2023-04-08T11:55:49.081Z,26.63
2023-04-08T11:58:15.973Z,24.85
2023-04-08T12:00:43.673Z,26.00
2023-04-08T12:03:11.453Z,26.40
2023-04-08T12:05:38.331Z,26.40
2023-04-08T12:08:05.180Z,30.90
2023-04-08T12:10:31.880Z,24.95
2023-04-08T12:12:58.601Z,25.33
2023-04-08T12:15:25.384Z,25.23
2023-04-08T12:17:52.183Z,29.52
2023-04-08T12:20:19.028Z,26.58
2023-04-08T12:22:45.821Z,24.23
2023-04-08T12:25:12.576Z,27.30
2023-04-08T12:27:39.307Z,23.13
2023-04-08T12:30:06.549Z,25.25
2023-04-08T12:32:33.608Z,25.88
2023-04-08T12:35:00.544Z,25.63
2023-04-08T12:37:28.001Z,27.27
2023-04-08T12:39:54.732Z,26.98
2023-04-08T12:42:21.640Z,27.05
2023-04-08T12:44:48.401Z,26.77
2023-04-08T12:47:15.631Z,27.40
2023-04-08T12:49:49.217Z,24.40
2023-04-08T12:52:17.664Z,25.58
2023-04-08T12:54:44.627Z,28.55
2023-04-08T12:57:11.319Z,26.27
2023-04-08T12:59:39.852Z,24.65
2023-04-08T13:02:07.739Z,23.35
2023-04-08T13:04:34.848Z,23.85
2023-04-08T13:07:01.595Z,25.55
2023-04-08T13:09:30.007Z,25.08
2023-04-08T13:11:56.648Z,23.40
2023-04-08T13:14:23.295Z,26.17
2023-04-08T13:16:50.063Z,22.25
2023-04-08T13:19:16.888Z,20.65
2023-04-08T13:21:45.527Z,24.13
2023-04-08T13:24:12.883Z,23.35
2023-04-08T13:26:39.594Z,21.73
2023-04-08T13:29:06.803Z,22.45
2023-04-08T13:31:33.603Z,23.88
2023-04-08T13:34:00.671Z,22.50
2023-04-08T13:36:28.895Z,22.83
2023-04-08T13:38:56.516Z,21.73
2023-04-08T13:41:23.696Z,21.05
2023-04-08T13:43:50.653Z,22.83
2023-04-08T13:46:18.180Z,19.85
2023-04-08T13:48:46.051Z,15.57
2023-04-08T13:51:12.901Z,19.30
2023-04-08T13:53:39.700Z,17.85
2023-04-08T13:56:06.941Z,18.27
2023-04-08T13:58:33.842Z,17.52
2023-04-08T14:01:00.662Z,13.82
2023-04-08T14:03:29.436Z,13.70
2023-04-08T14:05:57.540Z,13.68
2023-04-08T14:08:25.907Z,15.25
2023-04-08T14:10:55.768Z,13.77
2023-04-08T14:13:22.702Z,11.88
2023-04-08T14:15:50.001Z,15.77
2023-04-08T14:18:19.466Z,13.65
2023-04-08T14:20:46.228Z,14.48
2023-04-08T14:23:17.080Z,14.45
2023-04-08T14:25:44.077Z,13.73
2023-04-08T14:28:11.493Z,13.80
2023-04-08T14:30:38.253Z,14.63
2023-04-08T14:33:05.617Z,13.32
2023-04-08T14:35:32.617Z,12.00
2023-04-08T14:37:59.943Z,14.82
2023-04-08T14:40:26.731Z,16.25
2023-04-08T14:42:53.930Z,14.25
2023-04-08T14:45:20.682Z,13.55
2023-04-08T14:47:47.457Z,12.45
2023-04-08T14:50:14.199Z,14.27
2023-04-08T14:52:41.041Z,12.85
2023-04-08T14:55:07.942Z,13.10
2023-04-08T14:57:34.707Z,13.25
2023-04-08T15:00:01.855Z,12.98
2023-04-08T15:02:28.792Z,14.05
2023-04-08T15:04:55.710Z,13.52
2023-04-08T15:07:22.689Z,14.60
2023-04-08T15:09:49.403Z,13.15
2023-04-08T15:12:16.113Z,14.40
2023-04-08T15:14:42.830Z,14.90
2023-04-08T15:17:10.205Z,14.23
2023-04-08T15:19:36.958Z,15.35
2023-04-08T15:22:03.769Z,16.15
2023-04-08T15:24:30.655Z,15.88
2023-04-08T15:26:57.549Z,16.95
2023-04-08T15:29:24.669Z,19.33
2023-04-08T15:31:52.511Z,15.00
2023-04-08T15:34:19.280Z,17.90
2023-04-08T15:36:47.520Z,16.55
2023-04-08T15:39:14.847Z,20.70
2023-04-08T15:41:41.561Z,19.27
2023-04-08T15:44:08.411Z,16.15
2023-04-08T15:46:37.410Z,16.20
2023-04-08T15:49:04.674Z,16.67
2023-04-08T15:51:32.326Z,15.30
2023-04-08T15:53:59.701Z,16.63
2023-04-08T15:56:28.324Z,18.30
2023-04-08T15:58:56.507Z,18.92
2023-04-08T16:01:23.445Z,19.17
2023-04-08T16:03:50.592Z,17.58
2023-04-08T16:06:17.703Z,16.27
2023-04-08T16:08:46.825Z,18.55
2023-04-08T16:11:13.714Z,18.15
2023-04-08T16:13:42.316Z,18.83
2023-04-08T16:16:09.233Z,19.55
2023-04-08T16:18:36.167Z,20.13
2023-04-08T16:21:05.701Z,16.08
2023-04-08T16:23:34.211Z,21.50
2023-04-08T16:26:01.709Z,19.23
2023-04-08T16:28:28.614Z,19.52
2023-04-08T16:30:55.975Z,17.73
2023-04-08T16:33:29.678Z,19.88
2023-04-08T16:36:00.575Z,17.98
2023-04-08T16:38:27.752Z,22.40
2023-04-08T16:40:58.324Z,18.88
2023-04-08T16:43:25.950Z,23.30
2023-04-08T16:45:53.224Z,20.77
2023-04-08T16:48:20.084Z,23.27
2023-04-08T16:50:46.823Z,25.42
2023-04-08T16:53:13.574Z,20.05
2023-04-08T16:55:40.416Z,22.90
2023-04-08T16:58:07.384Z,22.80
2023-04-08T17:00:34.354Z,25.50
2023-04-08T17:03:01.693Z,26.75
2023-04-08T17:05:28.620Z,25.35
2023-04-08T17:07:58.918Z,24.17
2023-04-08T17:10:25.656Z,23.52
2023-04-08T17:12:52.370Z,25.20
2023-04-08T17:15:19.053Z,27.27
2023-04-08T17:17:46.456Z,23.60
2023-04-08T17:20:13.500Z,25.42
2023-04-08T17:22:40.224Z,26.20
2023-04-08T17:25:07.848Z,23.70
2023-04-08T17:27:35.772Z,26.00
2023-04-08T17:30:02.623Z,21.23
2023-04-08T17:32:29.299Z,25.15
2023-04-08T17:34:56.200Z,21.67
2023-04-08T17:37:22.904Z,22.00
2023-04-08T17:39:49.545Z,21.27
2023-04-08T17:42:16.883Z,20.20
2023-04-08T17:44:44.700Z,19.90
2023-04-08T17:47:11.473Z,22.98
2023-04-08T17:49:38.214Z,22.02
2023-04-08T17:52:06.126Z,22.02
2023-04-08T17:54:34.431Z,20.85
2023-04-08T17:57:01.630Z,22.60
2023-04-08T17:59:28.370Z,23.48
2023-04-08T18:01:55.396Z,26.45
2023-04-08T18:04:22.812Z,24.63
2023-04-08T18:06:49.601Z,27.38
2023-04-08T18:09:16.282Z,30.27
2023-04-08T18:11:42.980Z,25.58
2023-04-08T18:14:09.789Z,25.80
2023-04-08T18:16:36.593Z,29.58
2023-04-08T18:19:03.355Z,26.58
2023-04-08T18:21:29.978Z,28.25
2023-04-08T18:23:56.642Z,25.80
2023-04-08T18:26:23.427Z,28.10
2023-04-08T18:28:50.208Z,29.63
2023-04-08T18:31:16.950Z,28.88
2023-04-08T18:33:43.732Z,27.38
2023-04-08T18:36:14.914Z,29.75
2023-04-08T18:38:41.842Z,33.97
2023-04-08T18:41:08.668Z,31.55
2023-04-08T18:43:35.551Z,33.03
2023-04-08T18:46:02.419Z,31.65
2023-04-08T18:48:29.512Z,29.10
2023-04-08T18:50:56.654Z,31.15
2023-04-08T18:53:23.376Z,28.60
2023-04-08T18:55:51.174Z,29.60
2023-04-08T18:58:18.228Z,38.22
2023-04-08T19:00:45.112Z,31.92
2023-04-08T19:03:11.954Z,31.20
2023-04-08T19:05:38.815Z,32.40
2023-04-08T19:08:06.357Z,32.13
2023-04-08T19:10:34.408Z,39.55
2023-04-08T19:13:01.801Z,32.03
2023-04-08T19:15:29.001Z,35.30
2023-04-08T19:17:56.775Z,29.40
2023-04-08T19:20:23.955Z,33.13
2023-04-08T19:22:51.248Z,32.97
2023-04-08T19:25:18.131Z,33.78
2023-04-08T19:27:46.018Z,37.78
2023-04-08T19:30:13.433Z,31.13
2023-04-08T19:32:40.553Z,30.25
2023-04-08T19:35:08.070Z,36.28
2023-04-08T19:37:34.963Z,42.10
2023-04-08T19:40:01.869Z,37.13
2023-04-08T19:42:29.287Z,35.13
2023-04-08T19:44:56.200Z,42.33
2023-04-08T19:47:22.998Z,36.00
2023-04-08T19:49:50.022Z,40.20
2023-04-08T19:52:16.817Z,42.35
2023-04-08T19:54:43.729Z,37.22
2023-04-08T19:57:10.910Z,39.67
2023-04-08T19:59:38.248Z,36.42
2023-04-08T20:02:05.245Z,42.15
2023-04-08T20:04:32.708Z,40.85
2023-04-08T20:07:03.484Z,39.50
2023-04-08T20:09:33.324Z,34.58
2023-04-08T20:12:06.401Z,38.67
2023-04-08T20:14:35.739Z,34.38
2023-04-08T20:17:04.333Z,34.20
2023-04-08T20:19:31.202Z,29.38
2023-04-08T20:21:57.939Z,38.10
2023-04-08T20:24:24.828Z,39.25
2023-04-08T20:26:52.475Z,38.90
2023-04-08T20:29:19.327Z,31.38
2023-04-08T20:31:46.317Z,36.38
2023-04-08T20:34:13.423Z,44.03
2023-04-08T20:36:40.332Z,36.53
2023-04-08T20:39:10.502Z,33.25
2023-04-08T20:41:37.699Z,35.65
2023-04-08T20:44:07.042Z,31.83
2023-04-08T20:46:35.147Z,35.78
2023-04-08T20:49:03.504Z,37.22
2023-04-08T20:51:31.009Z,30.10
2023-04-08T20:53:58.407Z,37.15
2023-04-08T20:56:26.472Z,34.25
2023-04-08T20:58:53.716Z,36.97
2023-04-08T21:01:21.580Z,36.38
2023-04-08T21:03:49.411Z,29.92
2023-04-08T21:06:20.273Z,33.95
2023-04-08T21:08:47.350Z,36.58
2023-04-08T21:11:14.923Z,34.33
2023-04-08T21:13:41.940Z,35.90
2023-04-08T21:16:08.784Z,31.75
2023-04-08T21:18:38.903Z,35.65
2023-04-08T21:21:06.295Z,31.30
2023-04-08T21:23:33.028Z,33.67
2023-04-08T21:26:01.320Z,32.58
2023-04-08T21:28:29.465Z,33.05
2023-04-08T21:30:56.568Z,35.88
2023-04-08T21:33:23.206Z,35.20
2023-04-08T21:35:49.901Z,32.47
2023-04-08T21:38:16.607Z,36.58
2023-04-08T21:40:43.301Z,34.55
2023-04-08T21:43:09.954Z,30.70
2023-04-08T21:45:36.656Z,31.08
2023-04-08T21:48:03.383Z,31.27
2023-04-08T21:50:31.256Z,29.10
2023-04-08T21:52:57.917Z,31.77
2023-04-08T21:55:25.729Z,32.60
2023-04-08T21:57:52.390Z,31.05
2023-04-08T22:00:19.082Z,31.25
2023-04-08T22:02:45.999Z,31.00
2023-04-08T22:05:12.730Z,32.67
2023-04-08T22:07:39.553Z,31.30
2023-04-08T22:10:07.356Z,36.75
2023-04-08T22:12:34.599Z,33.25
2023-04-08T22:15:01.300Z,29.15
2023-04-08T22:17:28.070Z,32.10
2023-04-08T22:19:54.866Z,31.70
2023-04-08T22:22:21.577Z,30.42
2023-04-08T22:24:48.354Z,31.42
2023-04-08T22:27:15.100Z,35.30
2023-04-08T22:29:41.847Z,34.97
2023-04-08T22:32:08.535Z,31.02
2023-04-08T22:34:36.669Z,32.05
2023-04-08T22:37:03.317Z,29.92
2023-04-08T22:39:30.086Z,30.15
2023-04-08T22:41:57.452Z,29.70
2023-04-08T22:44:24.202Z,32.38
2023-04-08T22:46:51.541Z,32.30
2023-04-08T22:49:18.218Z,32.33
2023-04-08T22:51:44.844Z,31.85
2023-04-08T22:54:11.611Z,32.22
2023-04-08T22:56:38.317Z,33.60
2023-04-08T22:59:05.001Z,34.97
2023-04-08T23:01:31.861Z,32.38
2023-04-08T23:03:58.727Z,31.50
2023-04-08T23:06:27.393Z,29.95
2023-04-08T23:08:54.253Z,33.13
2023-04-08T23:11:21.318Z,31.45
2023-04-08T23:13:48.064Z,33.83
2023-04-08T23:16:14.981Z,27.45
2023-04-08T23:18:41.670Z,32.90
2023-04-08T23:21:08.465Z,34.53
2023-04-08T23:23:35.217Z,30.52
2023-04-08T23:26:01.894Z,29.77
2023-04-08T23:28:28.579Z,32.65
2023-04-08T23:30:55.414Z,28.15
2023-04-08T23:33:22.174Z,25.10
2023-04-08T23:35:48.992Z,32.63
2023-04-08T23:38:15.922Z,31.92
2023-04-08T23:40:42.650Z,32.75
2023-04-08T23:43:09.558Z,31.63
2023-04-08T23:45:36.260Z,28.98
2023-04-08T23:48:03.030Z,26.45
2023-04-08T23:50:29.874Z,31.92
2023-04-08T23:52:56.666Z,31.33
2023-04-08T23:55:23.504Z,33.45
2023-04-08T23:57:50.935Z,33.63
